Terminal Aerodrome Forecast
Issued by NWS

Home | Current Version | Previous Version | Graphics & Text | Print | Product List | Glossary On
Versions: 1 2 3 4 5 6 7 8 9 10 11 12 13 14
000
FTUS45 KGGW 021100
TAFSDY
TAF
KSDY 021129Z 0212/0312 17006KT P6SM BKN150
     FM021500 19011KT P6SM BKN150
     FM021800 21016KT P6SM BKN120
     FM022000 27017KT P6SM BKN040
     FM022300 32020G30KT P6SM VCSH OVC025
     FM030500 33020G30KT P6SM OVC040
      AMD LTD TO CLD VIS AND WIND=

USA.gov is the U.S. government's official web portal to all federal, state and local government web resources and services.